This is the latest recevied weather packets stored in our database for station/object KE4LOJ. If no packets are shown the sender has not sent any weather packets the latest 10 day(s).
| Time | Temp. | Humidity | Pressure | Rain* | Wind** | Luminosity | Snow |
|---|---|---|---|---|---|---|---|
| 1777651548 | 30.56° C | 55% | 1012.8 hPa | 0 mm | - | 787 W/m² | - |
| 1777651245 | 30.56° C | 55% | 1012.8 hPa | 0 mm | - | 792 W/m² | - |
| 1777650941 | 30.56° C | 55% | 1012.8 hPa | 0 mm | - | 760 W/m² | - |
| 1777650639 | 30° C | 57% | 1012.7 hPa | 0 mm | - | 750 W/m² | - |
| 1777650336 | 29.44° C | 58% | 1013 hPa | 0 mm | - | 744 W/m² | - |
| 1777650033 | 29.44° C | 59% | 1012.7 hPa | 0 mm | - | 777 W/m² | - |
| 1777649730 | 29.44° C | 61% | 1012.9 hPa | 0 mm | - | 725 W/m² | - |
| 1777649426 | 29.44° C | 60% | 1013.1 hPa | 0 mm | - | 709 W/m² | - |
| 1777649123 | 28.89° C | 61% | 1012.9 hPa | 0 mm | - | 703 W/m² | - |
| 1777648821 | 29.44° C | 60% | 1012.9 hPa | 0 mm | - | 682 W/m² | - |
| 1777648518 | 28.89° C | 61% | 1012.9 hPa | 0 mm | - | 667 W/m² | - |
| 1777648215 | 28.89° C | 63% | 1013.1 hPa | 0 mm | - | 657 W/m² | - |
| 1777647909 | 28.33° C | 63% | 1013.1 hPa | 0 mm | - | 646 W/m² | - |
| 1777647607 | 29.44° C | 61% | 1013 hPa | 0 mm | - | 637 W/m² | - |
| 1777647303 | 28.89° C | 63% | 1013.1 hPa | 0 mm | - | 642 W/m² | - |
| 1777647001 | 28.33° C | 65% | 1013 hPa | 0 mm | - | 615 W/m² | - |
| 1777646696 | 27.78° C | 66% | 1012.9 hPa | 0 mm | - | 618 W/m² | - |
| 1777646392 | 28.33° C | 66% | 1013 hPa | 0 mm | - | 594 W/m² | - |
| 1777646089 | 28.33° C | 66% | 1012.9 hPa | 0 mm | - | 533 W/m² | - |
| 1777645785 | 28.33° C | 66% | 1012.9 hPa | 0 mm | - | 543 W/m² | - |
| 1777645483 | 27.78° C | 68% | 1013.2 hPa | 0 mm | - | 559 W/m² | - |
| 1777645178 | 27.22° C | 71% | 1013 hPa | 0 mm | - | 260 W/m² | - |
| 1777644875 | 27.22° C | 71% | 1013 hPa | 0 mm | - | 396 W/m² | - |
| 1777644573 | 27.22° C | 71% | 1012.9 hPa | 0 mm | - | 508 W/m² | - |
| 1777644268 | 27.22° C | 74% | 1012.9 hPa | 0 mm | - | 302 W/m² | - |
* Rain latest hour (hover to see other rain measurements)
** Current wind speed in m/s (hover to see current wind gust speed)